Time;durP1;ratioP1;P1;durP2;ratioP2;P2;SDS_P1;SDS_P2;PMS_P1;PMS_P2;Temp;Humidity;BMP_temperature;BMP_pressure;BME280_temperature;BME280_humidity;BME280_pressure;Samples;Min_cycle;Max_cycle;Signal;HPM_P1;HPM_P2
2023/07/15 00:01:14;;;;;;;673.83;632.88;;;19.00;99.90;;;;;;5027934;28;20051;-69
2023/07/15 00:03:40;;;;;;;703.35;660.03;;;19.00;99.90;;;;;;5037717;28;20057;-69
2023/07/15 00:06:07;;;;;;;717.78;672.88;;;19.10;99.90;;;;;;5040447;28;20052;-69
2023/07/15 00:08:33;;;;;;;705.35;661.97;;;19.00;99.90;;;;;;5041922;28;20045;-69
2023/07/15 00:10:59;;;;;;;688.67;646.45;;;19.10;99.90;;;;;;5045518;28;20898;-69
2023/07/15 00:13:24;;;;;;;687.53;645.65;;;19.10;99.90;;;;;;5024535;28;20543;-69
2023/07/15 00:15:53;;;;;;;686.35;644.67;;;19.10;99.90;;;;;;5026069;28;20478;-70
2023/07/15 00:18:20;;;;;;;684.70;643.40;;;19.10;99.90;;;;;;5045736;28;20462;-70
2023/07/15 00:20:47;;;;;;;665.80;625.83;;;19.20;99.90;;;;;;5027558;28;20432;-69
2023/07/15 00:23:25;;;;;;;652.10;613.85;;;19.20;99.90;;;;;;5042455;28;20048;-70
2023/07/15 00:25:53;;;;;;;672.75;632.30;;;19.20;99.90;;;;;;5027407;28;20037;-70
2023/07/15 00:28:20;;;;;;;660.05;620.78;;;19.20;99.90;;;;;;5039576;28;20037;-69
2023/07/15 00:30:48;;;;;;;667.80;628.05;;;19.20;99.90;;;;;;5040656;28;20406;-70
2023/07/15 00:33:15;;;;;;;629.28;592.97;;;19.30;99.90;;;;;;5060104;28;20541;-70
2023/07/15 00:35:43;;;;;;;668.33;628.40;;;19.20;99.90;;;;;;5044868;28;20033;-69
2023/07/15 00:38:10;;;;;;;660.80;620.85;;;19.30;99.90;;;;;;5045057;28;20036;-70
2023/07/15 00:40:43;;;;;;;657.03;617.83;;;19.30;99.90;;;;;;5045575;28;20053;-70
2023/07/15 00:43:47;;;;;;;662.78;623.17;;;19.30;99.90;;;;;;5044412;28;20072;-70
2023/07/15 00:46:35;;;;;;;645.15;607.25;;;19.30;99.90;;;;;;5057530;28;20056;-70
2023/07/15 00:49:22;;;;;;;632.78;595.88;;;19.30;99.90;;;;;;5042983;28;20048;-69
2023/07/15 00:52:02;;;;;;;627.72;591.28;;;19.30;99.90;;;;;;5038184;28;20041;-69
2023/07/15 00:54:40;;;;;;;637.88;600.95;;;19.30;99.90;;;;;;5036476;28;20040;-70
2023/07/15 00:57:07;;;;;;;652.65;614.05;;;19.20;99.90;;;;;;5035886;28;20088;-70
2023/07/15 00:59:34;;;;;;;628.90;592.80;;;19.20;99.90;;;;;;5015381;28;20089;-69
2023/07/15 01:02:01;;;;;;;639.05;601.70;;;19.20;99.90;;;;;;5038598;28;20045;-70
2023/07/15 01:04:26;;;;;;;653.45;615.35;;;19.30;99.90;;;;;;5044758;28;20061;-69
2023/07/15 01:06:54;;;;;;;632.00;595.40;;;19.30;99.90;;;;;;5037191;28;20041;-70
2023/07/15 01:09:20;;;;;;;629.13;593.10;;;19.30;99.90;;;;;;5046559;28;20041;-69
2023/07/15 01:11:46;;;;;;;620.58;585.10;;;19.30;99.90;;;;;;5048681;28;20033;-70
2023/07/15 01:14:12;;;;;;;620.92;585.35;;;19.40;99.90;;;;;;5048226;28;20457;-69
2023/07/15 01:16:39;;;;;;;597.20;563.90;;;19.40;99.90;;;;;;5048600;28;20051;-69
2023/07/15 01:19:05;;;;;;;620.83;585.55;;;19.40;99.90;;;;;;5043559;28;20067;-70
2023/07/15 01:21:34;;;;;;;619.75;584.97;;;19.40;99.90;;;;;;5048703;28;20580;-70
2023/07/15 01:24:00;;;;;;;634.78;598.28;;;19.40;99.90;;;;;;5041221;28;20501;-70
2023/07/15 01:26:26;;;;;;;621.20;585.95;;;19.40;99.90;;;;;;5066015;28;20075;-70
2023/07/15 01:28:51;;;;;;;648.58;610.22;;;19.40;99.90;;;;;;5045165;28;20493;-70
2023/07/15 01:31:19;;;;;;;552.67;522.78;;;19.40;99.90;;;;;;5036635;28;20037;-71
2023/07/15 01:33:45;;;;;;;596.45;562.65;;;19.40;99.90;;;;;;5019234;28;20087;-70
2023/07/15 01:36:13;;;;;;;647.92;610.00;;;19.40;99.90;;;;;;5036639;28;20118;-70
2023/07/15 01:38:40;;;;;;;538.38;509.50;;;19.40;99.90;;;;;;5049207;28;20062;-70
2023/07/15 01:41:06;;;;;;;447.13;424.77;;;19.40;99.90;;;;;;5048234;28;20059;-70
2023/07/15 01:43:32;;;;;;;495.48;469.98;;;19.50;99.90;;;;;;5048388;28;20051;-69
2023/07/15 01:45:58;;;;;;;435.75;414.33;;;19.60;99.90;;;;;;5049066;28;20045;-70
2023/07/15 01:48:25;;;;;;;432.92;411.52;;;19.60;99.90;;;;;;5047483;28;20989;-70
2023/07/15 01:50:51;;;;;;;472.42;448.15;;;19.70;99.90;;;;;;5045336;28;20099;-70
2023/07/15 01:53:17;;;;;;;513.65;486.90;;;19.70;99.90;;;;;;5041795;28;20072;-70
2023/07/15 01:55:43;;;;;;;397.08;378.20;;;19.80;99.90;;;;;;5039643;28;20076;-69
2023/07/15 01:58:09;;;;;;;511.55;484.52;;;19.80;99.90;;;;;;5064012;28;20037;-71
2023/07/15 02:00:34;;;;;;;490.20;464.90;;;19.80;99.90;;;;;;5046879;28;20519;-70
2023/07/15 02:03:00;;;;;;;447.20;424.88;;;19.80;99.90;;;;;;5044741;28;20049;-69
2023/07/15 02:05:25;;;;;;;429.83;409.08;;;19.90;99.90;;;;;;5046064;28;20060;-70
2023/07/15 02:07:51;;;;;;;415.73;395.50;;;19.80;99.90;;;;;;5049908;28;20045;-70
2023/07/15 02:10:17;;;;;;;368.05;350.65;;;19.90;99.90;;;;;;5047273;28;20086;-69
2023/07/15 02:12:43;;;;;;;341.27;325.55;;;19.80;99.90;;;;;;5035648;28;20086;-69
2023/07/15 02:15:09;;;;;;;320.15;305.73;;;19.80;99.90;;;;;;5030247;28;20045;-69
2023/07/15 02:17:35;;;;;;;369.23;351.48;;;19.90;99.90;;;;;;5044944;28;20056;-69
2023/07/15 02:20:01;;;;;;;372.70;355.25;;;19.90;99.90;;;;;;5038461;28;20072;-70
2023/07/15 02:22:27;;;;;;;343.02;327.00;;;19.90;99.90;;;;;;5035285;28;20467;-69
2023/07/15 02:24:53;;;;;;;356.60;340.00;;;19.90;99.90;;;;;;5043765;28;20032;-69
2023/07/15 02:27:18;;;;;;;366.67;349.48;;;19.90;99.90;;;;;;5029662;28;20083;-69
2023/07/15 02:29:44;;;;;;;339.52;323.70;;;19.90;99.90;;;;;;5046129;28;20083;-69
2023/07/15 02:32:34;;;;;;;327.45;312.15;;;19.80;99.90;;;;;;5058193;28;20103;-70
2023/07/15 02:35:00;;;;;;;343.70;327.83;;;19.90;99.90;;;;;;5044116;28;20037;-69
2023/07/15 02:37:26;;;;;;;348.73;332.00;;;19.90;99.90;;;;;;5036366;28;20049;-70
2023/07/15 02:39:52;;;;;;;382.85;364.38;;;19.90;99.90;;;;;;5036927;28;20040;-70
2023/07/15 02:42:17;;;;;;;348.75;332.30;;;19.80;99.90;;;;;;5036068;28;20046;-70
2023/07/15 02:44:43;;;;;;;335.70;319.95;;;19.90;99.90;;;;;;5035581;28;20047;-70
2023/07/15 02:47:08;;;;;;;334.40;318.48;;;19.90;99.90;;;;;;5047225;28;20927;-70
2023/07/15 02:49:34;;;;;;;364.33;346.92;;;19.80;99.90;;;;;;5042497;28;20585;-70
2023/07/15 02:52:00;;;;;;;380.17;361.88;;;19.80;99.90;;;;;;5038282;28;20047;-70
2023/07/15 02:54:26;;;;;;;502.63;476.13;;;19.80;99.90;;;;;;5045128;28;20084;-69
2023/07/15 02:56:53;;;;;;;413.33;392.85;;;19.80;99.90;;;;;;5047321;28;20080;-69
2023/07/15 02:59:19;;;;;;;359.35;342.33;;;19.70;99.90;;;;;;5046681;28;20059;-69
2023/07/15 03:01:45;;;;;;;379.92;361.65;;;19.60;99.90;;;;;;5044815;28;20079;-69
2023/07/15 03:04:10;;;;;;;425.27;404.27;;;19.60;99.90;;;;;;5022374;28;20386;-69
2023/07/15 03:06:36;;;;;;;411.02;390.75;;;19.60;99.90;;;;;;5035895;28;20049;-69
2023/07/15 03:09:02;;;;;;;499.58;473.15;;;19.60;99.90;;;;;;5044412;28;20066;-69
2023/07/15 03:11:28;;;;;;;375.25;357.42;;;19.60;99.90;;;;;;5046320;28;20385;-69
2023/07/15 03:13:54;;;;;;;400.30;380.77;;;19.60;99.90;;;;;;5017274;28;20037;-69
2023/07/15 03:16:22;;;;;;;291.00;277.83;;;19.60;99.90;;;;;;5046330;28;20047;-69
2023/07/15 03:18:48;;;;;;;346.90;330.35;;;19.70;99.90;;;;;;5015890;28;20136;-69
2023/07/15 03:21:13;;;;;;;357.33;340.05;;;19.70;99.90;;;;;;5047530;28;20051;-69
2023/07/15 03:23:39;;;;;;;383.63;365.33;;;19.80;99.90;;;;;;5046183;28;20409;-69
2023/07/15 03:26:05;;;;;;;316.85;302.35;;;19.70;99.90;;;;;;5014460;28;20041;-69
2023/07/15 03:28:30;;;;;;;458.02;434.73;;;19.70;99.90;;;;;;5055163;28;20049;-69
2023/07/15 03:30:56;;;;;;;416.63;396.02;;;19.70;99.90;;;;;;5045619;28;20048;-69
2023/07/15 03:33:22;;;;;;;397.15;377.60;;;19.60;99.90;;;;;;5042666;28;20466;-69
2023/07/15 03:35:47;;;;;;;384.25;365.67;;;19.60;99.90;;;;;;5043196;28;20033;-69
2023/07/15 03:38:13;;;;;;;402.33;382.45;;;19.60;99.90;;;;;;5040466;28;20040;-69
2023/07/15 03:40:38;;;;;;;425.23;404.33;;;19.50;99.90;;;;;;5029656;28;20045;-69
2023/07/15 03:43:04;;;;;;;447.92;425.45;;;19.50;99.90;;;;;;5058988;28;20040;-69
2023/07/15 03:45:30;;;;;;;441.50;419.50;;;19.40;99.90;;;;;;5046014;28;20047;-69
2023/07/15 03:47:55;;;;;;;510.35;484.02;;;19.40;99.90;;;;;;5044090;28;20510;-68
2023/07/15 03:50:21;;;;;;;533.03;504.67;;;19.40;99.90;;;;;;5045033;28;20399;-69
2023/07/15 03:52:47;;;;;;;539.97;511.10;;;19.30;99.90;;;;;;5046001;28;20489;-69
2023/07/15 03:55:12;;;;;;;488.02;463.15;;;19.20;99.90;;;;;;5043792;28;20037;-69
2023/07/15 03:57:38;;;;;;;434.70;413.63;;;19.10;99.90;;;;;;5058519;28;20378;-69
2023/07/15 04:00:16;;;;;;;548.38;519.47;;;19.10;99.90;;;;;;5044320;28;20508;-69
2023/07/15 04:02:46;;;;;;;484.60;460.05;;;19.10;99.90;;;;;;5038105;28;20052;-69
2023/07/15 04:05:12;;;;;;;524.83;497.73;;;19.10;99.90;;;;;;5036162;28;20506;-69
2023/07/15 04:07:37;;;;;;;489.25;464.15;;;19.10;99.90;;;;;;5041336;28;20037;-69
2023/07/15 04:10:04;;;;;;;494.33;469.42;;;19.00;99.90;;;;;;5045299;28;20436;-69
2023/07/15 04:12:29;;;;;;;470.65;447.65;;;19.00;99.90;;;;;;5043063;28;20160;-69
2023/07/15 04:14:55;;;;;;;492.58;468.10;;;18.90;99.90;;;;;;5045578;28;20119;-69
2023/07/15 04:17:20;;;;;;;440.02;418.58;;;18.90;99.90;;;;;;5036436;28;20036;-69
2023/07/15 04:19:46;;;;;;;453.52;430.95;;;18.90;99.90;;;;;;5044530;28;20321;-70
2023/07/15 04:22:12;;;;;;;424.98;404.63;;;18.90;99.90;;;;;;5045650;28;20051;-69
2023/07/15 04:24:38;;;;;;;415.83;395.73;;;18.90;99.90;;;;;;5044761;28;20052;-69
2023/07/15 04:27:04;;;;;;;424.23;403.65;;;18.90;99.90;;;;;;5045001;28;20040;-69
2023/07/15 04:29:31;;;;;;;413.42;393.80;;;19.00;99.90;;;;;;5044624;28;20052;-69
2023/07/15 04:31:57;;;;;;;408.08;388.90;;;19.00;99.90;;;;;;5028399;28;20041;-69
2023/07/15 04:34:22;;;;;;;418.25;398.13;;;19.00;99.90;;;;;;5044038;28;20077;-69
2023/07/15 04:36:48;;;;;;;402.05;382.77;;;19.00;99.90;;;;;;5044649;28;20076;-69
2023/07/15 04:39:14;;;;;;;390.65;372.33;;;18.90;99.90;;;;;;5046346;28;20048;-69
2023/07/15 04:41:39;;;;;;;388.58;370.40;;;19.00;99.90;;;;;;5039101;28;20405;-69
2023/07/15 04:44:05;;;;;;;407.95;388.63;;;19.00;99.90;;;;;;5050474;28;20517;-69
2023/07/15 04:46:31;;;;;;;391.65;372.98;;;19.00;99.90;;;;;;5050010;28;20066;-69
2023/07/15 04:48:56;;;;;;;406.85;387.65;;;19.10;99.90;;;;;;5046084;28;20402;-69
2023/07/15 04:51:22;;;;;;;444.00;422.35;;;19.20;99.90;;;;;;5032071;28;20561;-70
2023/07/15 04:53:48;;;;;;;419.05;398.52;;;19.30;99.90;;;;;;5048524;28;20040;-69
2023/07/15 04:56:13;;;;;;;437.42;416.23;;;19.40;99.90;;;;;;5048804;28;20082;-70
2023/07/15 04:58:39;;;;;;;409.17;389.58;;;19.50;99.90;;;;;;5047740;28;20037;-69
2023/07/15 05:01:05;;;;;;;405.35;385.75;;;19.60;99.90;;;;;;5046146;28;20053;-70
2023/07/15 05:03:32;;;;;;;431.15;410.33;;;19.60;99.90;;;;;;5039720;28;20061;-69
2023/07/15 05:05:58;;;;;;;412.88;393.13;;;19.50;99.90;;;;;;5032489;28;20053;-69
2023/07/15 05:08:24;;;;;;;411.10;391.13;;;19.60;99.90;;;;;;5048791;28;20466;-69
2023/07/15 05:10:49;;;;;;;425.25;404.33;;;19.60;99.90;;;;;;5027817;28;20032;-70
2023/07/15 05:13:16;;;;;;;423.63;402.92;;;19.60;99.90;;;;;;5039168;28;20072;-70
2023/07/15 05:15:42;;;;;;;431.05;410.20;;;19.70;99.90;;;;;;5037297;28;20036;-69
2023/07/15 05:18:08;;;;;;;445.50;423.77;;;19.70;99.90;;;;;;5047469;28;20041;-69
2023/07/15 05:20:34;;;;;;;455.50;432.80;;;19.80;99.90;;;;;;5047973;28;20057;-70
2023/07/15 05:23:02;;;;;;;418.10;397.73;;;19.90;99.90;;;;;;5032644;28;20056;-69
2023/07/15 05:25:29;;;;;;;453.33;430.90;;;20.00;99.90;;;;;;5047818;28;20777;-70
2023/07/15 05:27:55;;;;;;;469.33;446.10;;;20.00;99.90;;;;;;5027297;28;20068;-69
2023/07/15 05:30:21;;;;;;;405.30;385.92;;;20.10;99.90;;;;;;5056302;28;20060;-70
2023/07/15 05:32:47;;;;;;;456.13;433.38;;;20.20;99.90;;;;;;5042246;28;20405;-70
2023/07/15 05:35:12;;;;;;;439.98;418.23;;;20.30;99.90;;;;;;5048932;28;20482;-70
2023/07/15 05:37:38;;;;;;;421.83;401.35;;;20.40;99.90;;;;;;5046673;28;20132;-70
2023/07/15 05:40:09;;;;;;;442.88;421.02;;;20.50;99.90;;;;;;5039362;28;20049;-70
2023/07/15 05:42:45;;;;;;;424.00;402.98;;;20.50;99.90;;;;;;5056871;28;20450;-70
2023/07/15 05:45:11;;;;;;;395.75;376.35;;;20.60;99.90;;;;;;5037096;28;20471;-70
2023/07/15 05:47:41;;;;;;;417.95;397.65;;;20.70;99.90;;;;;;5036855;28;20033;-70
2023/07/15 05:50:08;;;;;;;418.55;398.10;;;20.80;99.90;;;;;;5046611;28;20048;-70
2023/07/15 05:52:34;;;;;;;416.80;396.27;;;20.90;99.90;;;;;;5046513;28;20535;-69
2023/07/15 05:55:00;;;;;;;416.17;395.63;;;21.00;99.90;;;;;;5046549;28;20037;-69
2023/07/15 05:57:25;;;;;;;468.02;444.55;;;21.00;99.90;;;;;;5027219;28;20095;-70
2023/07/15 05:59:51;;;;;;;473.70;449.73;;;21.10;99.90;;;;;;5021645;28;20102;-70
2023/07/15 06:02:17;;;;;;;503.23;476.77;;;21.20;99.90;;;;;;5046892;28;20056;-70
2023/07/15 13:04:58;;;;;;;56.25;53.60;;;25.80;99.90;;;;;;3146697;28;20422;-70
2023/07/15 13:07:24;;;;;;;98.70;94.05;;;25.70;99.90;;;;;;5025978;28;20045;-69
2023/07/15 13:09:49;;;;;;;75.38;70.70;;;25.60;99.90;;;;;;5050234;28;20032;-69
2023/07/15 13:12:15;;;;;;;169.63;161.85;;;25.50;99.90;;;;;;5035045;28;20128;-69
2023/07/15 13:14:40;;;;;;;288.48;274.77;;;25.40;99.90;;;;;;5044242;28;20045;-69
2023/07/15 13:17:06;;;;;;;311.83;296.65;;;25.40;99.90;;;;;;5044134;28;20047;-69
2023/07/15 13:19:32;;;;;;;328.02;312.33;;;25.40;99.90;;;;;;5041374;28;20408;-69
2023/07/15 13:21:59;;;;;;;359.85;342.02;;;25.20;99.90;;;;;;5048241;28;20044;-69
2023/07/15 13:24:24;;;;;;;428.85;406.40;;;25.10;99.90;;;;;;5057918;28;20040;-69
2023/07/15 13:26:51;;;;;;;681.15;639.15;;;25.10;99.90;;;;;;5031349;28;20041;-69
2023/07/15 13:29:16;;;;;;;636.65;598.47;;;25.30;99.90;;;;;;5052665;28;20049;-69
2023/07/15 13:31:42;;;;;;;542.05;511.70;;;25.40;99.90;;;;;;5038245;28;20045;-69
2023/07/15 13:34:08;;;;;;;714.53;669.80;;;25.40;99.90;;;;;;5022005;28;20055;-69
2023/07/15 13:36:33;;;;;;;552.88;521.33;;;25.40;99.90;;;;;;5035127;28;20046;-69
2023/07/15 13:38:59;;;;;;;423.02;401.23;;;25.60;99.90;;;;;;5047796;28;20536;-69
2023/07/15 13:41:24;;;;;;;354.92;337.33;;;25.90;99.90;;;;;;5013296;28;20539;-70
2023/07/15 13:43:50;;;;;;;726.22;679.92;;;26.20;99.90;;;;;;5043591;28;20042;-69
2023/07/15 13:46:16;;;;;;;238.20;226.38;;;26.30;99.90;;;;;;5047591;28;20518;-70
2023/07/15 13:48:41;;;;;;;323.48;306.17;;;26.50;99.90;;;;;;5045005;28;20044;-70
2023/07/15 13:51:07;;;;;;;39.67;37.67;;;26.90;99.90;;;;;;5046527;28;20044;-70
2023/07/15 13:53:32;;;;;;;26.13;24.50;;;27.30;99.90;;;;;;5013568;28;20033;-69
2023/07/15 13:55:58;;;;;;;110.85;106.10;;;27.70;99.90;;;;;;5042320;28;20049;-69
2023/07/15 13:58:24;;;;;;;71.22;68.03;;;28.10;99.90;;;;;;5033817;28;20080;-68
2023/07/15 14:00:49;;;;;;;112.60;107.55;;;28.10;99.90;;;;;;5040348;28;20049;-70
2023/07/15 14:03:15;;;;;;;50.53;48.10;;;28.20;99.90;;;;;;5036498;28;20523;-71
2023/07/15 14:05:41;;;;;;;46.28;44.08;;;28.40;99.90;;;;;;5047513;28;20089;-71
2023/07/15 14:08:06;;;;;;;115.60;110.40;;;28.50;99.80;;;;;;5028392;28;20053;-71
2023/07/15 14:10:32;;;;;;;66.57;63.55;;;28.40;98.80;;;;;;5041105;28;20045;-71
2023/07/15 14:12:57;;;;;;;53.65;51.13;;;28.40;98.80;;;;;;5047939;28;20303;-70
2023/07/15 14:15:23;;;;;;;113.30;108.22;;;28.70;99.70;;;;;;5047986;28;20033;-71
2023/07/15 14:17:48;;;;;;;91.85;87.80;;;29.00;98.70;;;;;;5036481;28;20132;-68
2023/07/15 14:20:15;;;;;;;87.75;83.80;;;29.00;98.20;;;;;;5042895;28;20052;-68
2023/07/15 14:22:41;;;;;;;51.95;49.42;;;28.90;98.60;;;;;;5042534;28;20041;-68
2023/07/15 14:25:08;;;;;;;97.63;93.22;;;28.90;98.20;;;;;;5021137;28;20051;-71
2023/07/15 14:27:33;;;;;;;125.72;119.95;;;28.70;97.00;;;;;;5032772;28;20082;-70
2023/07/15 14:29:59;;;;;;;108.57;103.82;;;28.20;96.70;;;;;;5034009;28;20578;-70
2023/07/15 14:32:25;;;;;;;113.55;108.63;;;27.80;97.00;;;;;;5036585;28;20575;-72
2023/07/15 14:34:51;;;;;;;124.55;118.65;;;27.50;97.60;;;;;;5047088;28;20037;-72
2023/07/15 14:37:16;;;;;;;107.20;102.55;;;27.30;96.30;;;;;;5039939;28;20064;-70
2023/07/15 14:39:42;;;;;;;153.80;147.10;;;27.00;96.70;;;;;;5040964;28;20041;-70
2023/07/15 14:42:08;;;;;;;196.63;188.13;;;26.90;96.90;;;;;;5043498;28;20067;-70
2023/07/15 14:44:33;;;;;;;210.82;201.35;;;26.70;97.10;;;;;;5046323;28;20540;-70
2023/07/15 14:46:59;;;;;;;294.45;280.90;;;26.60;98.00;;;;;;5046342;28;20040;-70
2023/07/15 14:49:24;;;;;;;286.65;273.73;;;26.70;98.30;;;;;;5044897;28;20040;-71
2023/07/15 14:51:50;;;;;;;287.33;274.50;;;26.80;97.20;;;;;;5038847;28;20076;-70
2023/07/15 14:54:16;;;;;;;238.98;228.52;;;26.80;97.70;;;;;;5031994;28;20140;-70
2023/07/15 14:56:41;;;;;;;294.58;277.75;;;26.80;97.50;;;;;;5028716;28;20040;-70
2023/07/15 14:59:07;;;;;;;176.38;168.70;;;26.80;97.40;;;;;;5039879;28;20074;-70
2023/07/15 15:01:33;;;;;;;236.13;225.18;;;26.80;97.60;;;;;;5043241;28;20028;-70
2023/07/15 15:03:59;;;;;;;250.73;239.35;;;26.80;97.50;;;;;;5029534;28;20072;-70
2023/07/15 15:06:24;;;;;;;302.58;288.58;;;26.80;97.80;;;;;;5040431;28;20053;-70
2023/07/15 15:08:50;;;;;;;289.35;276.17;;;26.70;96.90;;;;;;5043586;28;20056;-70
2023/07/15 15:11:17;;;;;;;300.83;287.15;;;26.60;97.00;;;;;;5026033;28;20471;-70
2023/07/15 15:13:45;;;;;;;259.08;246.25;;;26.40;96.90;;;;;;5046793;28;20544;-70
2023/07/15 15:16:11;;;;;;;211.48;201.68;;;26.50;97.60;;;;;;5023260;28;20044;-70
2023/07/15 15:18:38;;;;;;;197.27;188.63;;;26.60;97.70;;;;;;5046997;28;20037;-70
2023/07/15 15:21:04;;;;;;;256.60;244.57;;;26.70;97.80;;;;;;5039859;28;20048;-70
2023/07/15 15:23:30;;;;;;;237.13;226.52;;;26.90;96.80;;;;;;5039614;28;20044;-70
2023/07/15 15:25:55;;;;;;;318.08;303.20;;;26.80;96.50;;;;;;5025373;28;20045;-70
2023/07/15 15:28:21;;;;;;;337.27;321.17;;;26.60;96.20;;;;;;5038517;28;20506;-69
2023/07/15 15:30:46;;;;;;;327.33;311.45;;;26.40;96.00;;;;;;5045284;28;20120;-69
2023/07/15 15:33:12;;;;;;;308.55;294.48;;;26.30;96.10;;;;;;5046853;28;20457;-70
2023/07/15 15:35:38;;;;;;;337.08;320.90;;;26.30;96.20;;;;;;5020351;28;20036;-70
2023/07/15 15:38:03;;;;;;;235.52;225.13;;;26.30;95.70;;;;;;5041844;28;20077;-70
2023/07/15 15:40:29;;;;;;;292.77;278.67;;;26.60;96.20;;;;;;5020853;28;20045;-70
2023/07/15 15:42:54;;;;;;;284.33;271.60;;;26.90;95.00;;;;;;5043783;28;20045;-70
2023/07/15 15:45:22;;;;;;;196.38;187.90;;;27.00;94.70;;;;;;5044225;28;20049;-70
2023/07/15 15:47:48;;;;;;;209.57;200.25;;;27.10;96.20;;;;;;5047011;28;20098;-70
2023/07/15 15:50:15;;;;;;;143.02;136.73;;;27.10;97.10;;;;;;5034130;28;20040;-70
2023/07/15 15:52:45;;;;;;;134.43;128.63;;;27.40;97.50;;;;;;5040772;28;20045;-70
2023/07/15 15:55:11;;;;;;;181.50;173.43;;;27.70;97.80;;;;;;5043514;28;20626;-70
2023/07/15 15:57:36;;;;;;;179.73;171.82;;;27.80;97.10;;;;;;5035604;28;20462;-70
2023/07/15 16:00:02;;;;;;;169.35;161.40;;;27.70;96.80;;;;;;5037790;28;20214;-70
2023/07/15 16:02:30;;;;;;;164.40;155.70;;;27.60;97.30;;;;;;5041316;28;20048;-70
2023/07/15 16:04:56;;;;;;;257.80;244.10;;;27.60;98.00;;;;;;5040326;28;20045;-70
2023/07/15 16:07:22;;;;;;;168.50;160.85;;;27.60;96.80;;;;;;5036220;28;20033;-70
2023/07/15 16:09:48;;;;;;;202.60;189.05;;;27.80;97.60;;;;;;5028759;28;20045;-70
2023/07/15 16:12:13;;;;;;;208.05;198.38;;;27.90;96.10;;;;;;5040936;28;20552;-70
2023/07/15 16:14:39;;;;;;;214.85;205.32;;;27.80;94.40;;;;;;5039968;28;20600;-70
2023/07/15 16:17:04;;;;;;;221.65;212.02;;;27.50;93.80;;;;;;5047589;28;20053;-70
2023/07/15 16:19:30;;;;;;;258.35;246.90;;;27.20;94.20;;;;;;5037976;28;20517;-70
2023/07/15 16:21:58;;;;;;;274.42;261.70;;;27.00;94.10;;;;;;5034797;28;20037;-69
2023/07/15 16:24:24;;;;;;;311.65;297.13;;;26.80;94.20;;;;;;5039353;28;20482;-69
2023/07/15 16:26:49;;;;;;;339.65;323.70;;;26.50;93.50;;;;;;5042378;28;20044;-69
2023/07/15 16:29:15;;;;;;;339.13;323.15;;;26.30;93.50;;;;;;5028252;28;20246;-69
2023/07/15 16:31:40;;;;;;;363.08;344.83;;;26.20;94.00;;;;;;5039123;28;20045;-69
2023/07/15 16:34:06;;;;;;;313.27;298.90;;;26.00;94.10;;;;;;5042306;28;20179;-69
2023/07/15 16:36:31;;;;;;;256.70;245.27;;;25.80;94.10;;;;;;5039289;28;20077;-69
2023/07/15 16:38:57;;;;;;;424.45;396.58;;;25.70;94.60;;;;;;5046467;28;20556;-71
2023/07/15 16:41:22;;;;;;;680.05;635.53;;;25.50;97.40;;;;;;5031008;28;20163;-70
2023/07/15 16:43:48;;;;;;;516.70;486.30;;;25.10;99.90;;;;;;5037580;28;20052;-69
2023/07/15 16:46:14;;;;;;;800.22;745.92;;;24.10;99.90;;;;;;5062156;28;20040;-71
2023/07/15 16:48:41;;;;;;;810.00;756.25;;;23.20;99.90;;;;;;5048987;28;20128;-70
2023/07/15 16:51:06;;;;;;;778.30;724.45;;;22.30;99.90;;;;;;5043658;28;20044;-70
2023/07/15 16:53:32;;;;;;;673.67;629.58;;;21.60;99.90;;;;;;5026056;28;20037;-70
2023/07/15 16:55:57;;;;;;;577.20;542.30;;;21.10;99.90;;;;;;5018803;28;20127;-72
2023/07/15 16:58:23;;;;;;;496.90;470.15;;;20.50;99.90;;;;;;5014954;28;20029;-70
2023/07/15 17:00:50;;;;;;;552.00;518.95;;;20.20;99.90;;;;;;5033946;28;20505;-71
2023/07/15 17:03:15;;;;;;;1999.90;999.90;;;19.90;99.90;;;;;;5035214;28;20056;-69
2023/07/15 17:05:41;;;;;;;1999.90;999.90;;;19.70;99.90;;;;;;5034091;28;20045;-70
2023/07/15 17:08:07;;;;;;;1999.90;999.90;;;19.60;99.90;;;;;;5040888;28;20056;-70
2023/07/15 17:10:32;;;;;;;1999.90;999.90;;;19.40;99.90;;;;;;5042613;28;20643;-70
2023/07/15 17:12:58;;;;;;;1999.90;999.90;;;19.30;99.90;;;;;;5041655;28;20115;-70
2023/07/15 17:15:23;;;;;;;1999.90;999.90;;;19.20;99.90;;;;;;5036440;28;20041;-69
2023/07/15 17:17:49;;;;;;;1999.90;999.90;;;19.10;99.90;;;;;;5023603;28;20124;-69
2023/07/15 17:20:15;;;;;;;1999.90;999.90;;;19.00;99.90;;;;;;5044298;28;20536;-70
2023/07/15 17:22:40;;;;;;;1999.90;999.90;;;19.00;99.90;;;;;;5062238;28;20041;-69
2023/07/15 17:25:06;;;;;;;1999.90;999.90;;;19.10;99.90;;;;;;5033193;28;20063;-70
2023/07/15 17:27:31;;;;;;;1999.90;999.90;;;19.10;99.90;;;;;;5043396;28;20052;-70
2023/07/15 17:29:57;;;;;;;1999.90;999.90;;;19.10;99.90;;;;;;5044098;28;20124;-70
2023/07/15 17:32:23;;;;;;;1999.90;999.90;;;19.00;99.90;;;;;;5044379;28;20039;-70
2023/07/15 17:34:48;;;;;;;1999.90;999.90;;;18.90;99.90;;;;;;5040357;28;20618;-70
2023/07/15 17:37:14;;;;;;;1999.90;999.90;;;18.90;99.90;;;;;;5028879;28;20050;-71
2023/07/15 17:39:39;;;;;;;1999.90;999.90;;;18.90;99.90;;;;;;5039412;28;20032;-70
2023/07/15 17:42:05;;;;;;;1999.90;999.90;;;18.90;99.90;;;;;;5044444;28;20079;-70
2023/07/15 17:44:31;;;;;;;1999.90;999.90;;;18.90;99.90;;;;;;5024651;28;20039;-69
2023/07/15 17:46:57;;;;;;;1999.90;999.90;;;19.00;99.90;;;;;;5043543;28;20041;-70
2023/07/15 17:49:22;;;;;;;1999.90;999.90;;;19.30;99.90;;;;;;5041803;28;20049;-70
2023/07/15 17:51:48;;;;;;;1999.90;999.90;;;19.60;99.90;;;;;;5025639;28;20034;-70
2023/07/15 17:54:13;;;;;;;1999.90;999.90;;;19.70;99.90;;;;;;5037418;28;20507;-70
2023/07/15 17:56:39;;;;;;;1999.90;999.90;;;19.60;99.90;;;;;;5034227;28;20029;-70
2023/07/15 17:59:04;;;;;;;1999.90;999.90;;;19.40;99.90;;;;;;5043831;28;20444;-70
2023/07/15 18:01:30;;;;;;;1999.90;999.90;;;19.50;99.90;;;;;;5043215;28;20051;-70
2023/07/15 18:03:56;;;;;;;1999.90;999.90;;;19.60;99.90;;;;;;5042715;28;20385;-70
2023/07/15 18:06:21;;;;;;;1999.90;999.90;;;19.80;99.90;;;;;;5042742;28;20056;-70
2023/07/15 18:08:47;;;;;;;1999.90;999.90;;;19.90;99.90;;;;;;5042748;28;20151;-70
2023/07/15 18:11:12;;;;;;;1999.90;999.90;;;19.80;99.90;;;;;;5043870;28;20037;-70
2023/07/15 18:13:38;;;;;;;1999.90;999.90;;;19.80;99.90;;;;;;5042192;28;20038;-69
2023/07/15 18:16:04;;;;;;;1999.90;999.90;;;19.90;99.90;;;;;;5035166;28;20037;-70
2023/07/15 18:18:30;;;;;;;1999.90;999.90;;;20.10;99.90;;;;;;5039284;28;20144;-69
2023/07/15 18:20:56;;;;;;;1999.90;999.90;;;20.10;99.90;;;;;;5043190;28;20041;-69
2023/07/15 18:23:21;;;;;;;1999.90;999.90;;;20.10;99.90;;;;;;5045619;28;20449;-69
2023/07/15 18:25:47;;;;;;;1999.90;999.90;;;20.00;99.90;;;;;;5022120;28;20294;-69
2023/07/15 18:28:12;;;;;;;1999.90;999.90;;;19.90;99.90;;;;;;5021390;28;20056;-69
2023/07/15 18:30:39;;;;;;;1999.90;999.90;;;19.80;99.90;;;;;;5040426;28;20041;-69
2023/07/15 18:33:05;;;;;;;1999.90;999.90;;;19.80;99.90;;;;;;5028463;28;20580;-69
2023/07/15 18:35:30;;;;;;;1999.90;999.90;;;19.70;99.90;;;;;;5036943;28;20037;-68
2023/07/15 18:37:56;;;;;;;1999.90;999.90;;;19.60;99.90;;;;;;5045525;28;20037;-68
2023/07/15 18:40:22;;;;;;;1999.90;999.90;;;19.60;99.90;;;;;;5042634;28;20481;-69
2023/07/15 18:42:47;;;;;;;1999.90;999.90;;;19.50;99.90;;;;;;5046210;28;20040;-69
2023/07/15 18:45:13;;;;;;;1999.90;999.90;;;19.40;99.90;;;;;;5046784;28;20047;-68
2023/07/15 18:47:38;;;;;;;1999.90;999.90;;;19.30;99.90;;;;;;5042548;28;20048;-68
2023/07/15 18:50:05;;;;;;;1999.90;999.90;;;19.20;99.90;;;;;;5044623;28;20037;-69
2023/07/15 18:52:30;;;;;;;1999.90;999.90;;;19.20;99.90;;;;;;5046651;28;20409;-68
2023/07/15 18:54:56;;;;;;;1999.90;999.90;;;19.10;99.90;;;;;;5032975;28;20052;-69
2023/07/15 18:57:21;;;;;;;1999.90;999.90;;;19.00;99.90;;;;;;5044399;28;20036;-68
2023/07/15 18:59:47;;;;;;;1999.90;999.90;;;19.00;99.90;;;;;;5036342;28;20046;-68
2023/07/15 19:02:12;;;;;;;1999.90;999.90;;;18.90;99.90;;;;;;5032787;28;20040;-68
2023/07/15 19:04:38;;;;;;;1999.90;999.90;;;18.90;99.90;;;;;;5042882;28;20060;-68